• Join FlightAware (Why Join?)
  • Login
  • US Flag 
09:53PM EST


 

Airport Tracker/Info


-or-


 

Live Flight TrackerFlight Track Log ✈ SWA1120 ✈ 11-May-2013 ✈ KDAL - KAMA

Flight Track Log - Related Links

Times and Time Zones

All times are in EDT time to prevent confusion due to time zone crossing. See the SWA1120 flight status page for this flight to view local times or setup timezone preferences in your user account.

Time Position Orientation Groundspeed Altitude Reporting Facility
EDT Latitude Longitude Course Direction KTS MPH feet Rate Location/Type
09:48AM 32.8500 -96.8667 320° Northwest 148 170 1,200  Level Dallas / Fort Worth TRACON
09:49AM 32.8667 -96.8833 320° Northwest 160 184 1,900 2,231 Climbing Dallas / Fort Worth TRACON
09:50AM 32.9000 -96.9333 308° West 221 254 4,100 2,300 Climbing Dallas / Fort Worth TRACON
09:51AM 32.9333 -96.9833 308° West 249 287 6,500 2,866 Climbing Dallas / Fort Worth TRACON
09:53AM 32.9772 -97.1881 284° West 287 330 13,700 3,045 Climbing Fort Worth Center
09:54AM 33.0025 -97.3119 284° West 331 381 16,700 2,750 Climbing Fort Worth Center
09:55AM 33.0253 -97.4108 285° West 346 398 19,200 2,550 Climbing Fort Worth Center
09:56AM 33.0503 -97.5397 283° West 358 412 21,800 2,550 Climbing Fort Worth Center
09:57AM 33.0753 -97.6614 284° West 371 427 24,300 2,150 Climbing Fort Worth Center
09:58AM 33.1167 -97.7631 296° West 376 433 26,100 2,400 Climbing Fort Worth Center
09:59AM 33.1872 -97.8825 305° West 393 452 29,100 2,600 Climbing Fort Worth Center
10:00AM 33.2369 -97.9722 304° West 388 447 31,300 1,850 Climbing Fort Worth Center
10:01AM 33.3011 -98.0869 304° West 377 434 32,800 1,400 Climbing Fort Worth Center
10:02AM 33.3569 -98.1819 305° West 382 440 34,100 1,150 Climbing Fort Worth Center
10:03AM 33.4147 -98.2869 303° West 382 440 35,100 950 Climbing Fort Worth Center
10:04AM 33.4806 -98.4072 303° West 389 448 36,000 450 Climbing Fort Worth Center
10:05AM 33.5403 -98.5125 304° West 389 448 36,000  Level Fort Worth Center
10:06AM 33.6039 -98.6256 304° West 401 461 36,000  Level Fort Worth Center
10:07AM 33.6633 -98.7361 303° West 396 456 36,000  Level Fort Worth Center
10:08AM 33.7186 -98.8369 303° West 396 456 36,000  Level Fort Worth Center
10:09AM 33.7819 -98.9478 305° West 396 456 36,000  Level Fort Worth Center
10:10AM 33.8472 -99.0667 303° West 397 457 36,000  Level Fort Worth Center
10:11AM 33.9103 -99.1828 303° West 397 457 36,000  Level Fort Worth Center
10:12AM 33.9733 -99.2969 304° West 397 457 36,000  Level Fort Worth Center
10:13AM 34.0342 -99.4111 303° West 402 463 36,000  Level Fort Worth Center
10:14AM 34.0969 -99.5253 304° West 402 463 36,000  Level Fort Worth Center
10:15AM 34.1597 -99.6422 303° West 407 468 36,000  Level Fort Worth Center
10:16AM 34.2456 -99.7325 319° Northwest 412 474 36,000  Level Fort Worth Center
10:17AM 34.3358 -99.8253 320° Northwest 407 468 36,000  Level Fort Worth Center
10:18AM 34.4236 -99.9211 318° Northwest 419 482 36,000  Level Fort Worth Center
10:20AM 34.5475 -100.1153 308° West 422 486 36,000 -580 Level Albuquerque Center
10:21AM 34.6139 -100.2644 298° West 421 484 34,300 -2,488 Descending Albuquerque Center
10:22AM 34.6644 -100.3800 298° West 426 490 30,900 -3,415 Descending Albuquerque Center
10:23AM 34.7272 -100.5233 298° West 436 502 27,300 -3,610 Descending Albuquerque Center
10:24AM 34.7844 -100.6514 299° West 433 498 23,500 -2,683 Descending Albuquerque Center
10:25AM 34.8361 -100.7703 298° West 410 472 21,800 -2,537 Descending Albuquerque Center
10:26AM 34.8867 -100.8869 298° West 390 449 18,300 -3,073 Descending Albuquerque Center
10:27AM 34.9364 -101.0025 298° West 388 447 15,500 -2,852 Descending Albuquerque Center
10:28AM 34.9697 -101.1244 288° West 379 436 12,500 -2,585 Descending Albuquerque Center
10:29AM 35.0042 -101.2639 287° West 364 419 10,200 -1,500 Descending Albuquerque Center
10:30AM 35.0281 -101.3600 287° West 308 354 9,400 -1,220 Descending Albuquerque Center
10:31AM 35.0506 -101.4500 287° West 289 333 7,700 -1,122 Descending Albuquerque Center
10:32AM 35.0806 -101.5297 295° West 266 306 7,100 -829 Descending Albuquerque Center
10:33AM 35.1253 -101.5800 317° Northwest 237 273 6,000 -976 Descending Albuquerque Center
10:34AM 35.1586 -101.6175 317° Northwest 192 221 5,100 -732 Descending Albuquerque Center
10:35AM 35.1844 -101.6467 317° Northwest 146 168 4,500 -634 Descending Albuquerque Center
10:36AM 35.2122 -101.6769 318° Northwest 136 157 3,800 -677 Descending Albuquerque Center
10:38AM 35.2167 -101.7000 301° West  Level FlightAware Approximate